If you wish to contribute or participate in the discussions about articles you are invited to join SKYbrary as a registered user

 Actions

LFJR

From SKYbrary Wiki

Airport
ICAO: LFJR – IATA: ANE
Summary
Name Angers-Loire Airport
Region Europe
Territory France FR.gif
Location Marcé, Pays de la Loire
Serving Angers
Elevation 59.131 m
194 ft
Type medium airport
Coordinates 47° 33' 37.08", -0° 18' 43.9992"
Runways
Designator Length Width Surface ROPS
8/26 1800 m5,905.512 ft 45 m147.638 ft ASP yes/yes


METAR
Observation LFJR 250030Z AUTO 04006KT 9000 NSC M00/M06 Q1016
Station MARCE
Date/Time 25 February 2018 00:30:00
Wind direction 40°
Wind speed 06 kts
Lowest cloud amount nil significant cloud
Temperature
Dew point
Humidity 63%
QNH 1016 hPa
Weather condition n/a

Maps

Terrain

Airport Layout

Accidents & Serious Incidents at or in vicinity of LFJR

None on SKYbrary